Time;durP1;ratioP1;P1;durP2;ratioP2;P2;SDS_P1;SDS_P2;PMS_P1;PMS_P2;Temp;Humidity;BMP_temperature;BMP_pressure;BME280_temperature;BME280_humidity;BME280_pressure;Samples;Min_cycle;Max_cycle;Signal;HPM_P1;HPM_P2
2023/02/27 00:00:13;;;;;;;11.63;2.28;;;2.30;71.70;;;;;;9179698;19;20084;-64
2023/02/27 00:03:19;;;;;;;6.10;2.00;;;2.30;71.80;;;;;;9180772;19;20014;-64
2023/02/27 00:06:23;;;;;;;3.80;2.00;;;2.20;71.80;;;;;;9178988;19;20015;-64
2023/02/27 00:09:29;;;;;;;4.38;2.20;;;2.20;71.80;;;;;;9176844;19;20481;-64
2023/02/27 00:12:37;;;;;;;5.38;1.98;;;2.10;71.80;;;;;;9180234;19;20527;-64
2023/02/27 00:15:46;;;;;;;7.80;1.90;;;2.10;71.90;;;;;;9178973;19;20026;-64
2023/02/27 00:18:50;;;;;;;4.97;2.05;;;2.10;71.90;;;;;;9174521;19;20018;-64
2023/02/27 00:21:56;;;;;;;7.80;1.63;;;2.00;71.90;;;;;;9178518;19;20021;-64
2023/02/27 00:25:00;;;;;;;7.43;1.85;;;2.00;72.00;;;;;;9179831;19;20368;-64
2023/02/27 00:28:09;;;;;;;4.07;3.28;;;2.00;72.00;;;;;;9177961;19;20022;-64
2023/02/27 00:31:13;;;;;;;4.68;1.90;;;2.00;72.00;;;;;;9178446;19;20093;-65
2023/02/27 00:34:19;;;;;;;5.85;1.73;;;2.00;72.10;;;;;;9177474;19;20015;-64
2023/02/27 00:37:23;;;;;;;5.82;1.42;;;1.90;72.10;;;;;;9177932;19;20019;-64
2023/02/27 00:40:29;;;;;;;3.15;1.95;;;1.90;72.10;;;;;;9178958;19;20014;-64
2023/02/27 00:43:36;;;;;;;3.03;1.45;;;1.90;72.10;;;;;;9177906;19;20019;-64
2023/02/27 00:46:41;;;;;;;10.95;2.30;;;1.90;72.10;;;;;;9179892;19;20013;-64
2023/02/27 00:49:45;;;;;;;10.73;2.10;;;1.90;72.20;;;;;;9180039;19;20022;-64
2023/02/27 00:52:51;;;;;;;5.38;1.83;;;1.90;72.20;;;;;;9177106;19;20014;-64
2023/02/27 00:55:55;;;;;;;7.45;1.70;;;1.90;72.20;;;;;;9179960;19;20100;-64
2023/02/27 00:59:03;;;;;;;5.05;1.50;;;1.90;72.20;;;;;;9179199;19;20010;-64
2023/02/27 01:02:08;;;;;;;6.10;1.52;;;1.90;72.30;;;;;;9177200;19;20053;-64
2023/02/27 01:05:14;;;;;;;5.32;1.55;;;1.90;72.20;;;;;;9179956;19;20010;-64
2023/02/27 01:08:19;;;;;;;6.25;1.80;;;1.90;72.20;;;;;;9175644;19;20041;-64
2023/02/27 01:11:25;;;;;;;6.40;2.00;;;1.90;72.20;;;;;;9176509;19;20014;-64
2023/02/27 01:14:31;;;;;;;4.55;1.52;;;1.90;72.20;;;;;;9174839;19;20026;-66
2023/02/27 01:17:40;;;;;;;2.85;1.70;;;1.90;72.20;;;;;;9176697;19;20014;-64
2023/02/27 01:20:44;;;;;;;6.65;2.00;;;1.90;72.30;;;;;;9171249;19;20037;-64
2023/02/27 01:23:52;;;;;;;3.28;1.70;;;1.90;72.30;;;;;;9178183;19;20018;-64
2023/02/27 01:26:55;;;;;;;9.65;2.28;;;1.90;72.30;;;;;;9176378;19;20035;-64
2023/02/27 01:30:04;;;;;;;4.00;1.40;;;1.90;72.90;;;;;;9177046;19;20018;-64
2023/02/27 01:33:08;;;;;;;8.10;2.15;;;1.90;72.30;;;;;;9176473;19;20022;-64
2023/02/27 01:36:17;;;;;;;5.32;1.60;;;1.90;72.40;;;;;;9166423;19;20006;-64
2023/02/27 01:39:21;;;;;;;5.82;1.70;;;1.80;72.30;;;;;;9172578;19;20014;-64
2023/02/27 01:42:29;;;;;;;5.68;1.58;;;1.80;72.30;;;;;;9171618;19;20021;-64
2023/02/27 01:45:40;;;;;;;11.57;1.73;;;1.80;72.30;;;;;;9176011;19;20034;-64
2023/02/27 01:48:46;;;;;;;4.55;1.85;;;1.80;72.40;;;;;;9176971;19;20006;-64
2023/02/27 01:51:52;;;;;;;7.22;2.13;;;1.80;72.40;;;;;;9175776;19;20019;-64
2023/02/27 01:55:00;;;;;;;6.60;2.00;;;1.80;72.40;;;;;;9173073;19;20006;-64
2023/02/27 01:58:04;;;;;;;2.45;1.73;;;1.80;72.40;;;;;;9175308;19;20078;-64
2023/02/27 02:01:12;;;;;;;15.50;1.88;;;1.70;72.40;;;;;;9175201;19;20530;-64
2023/02/27 02:04:23;;;;;;;4.00;1.92;;;1.70;72.40;;;;;;9175330;19;20036;-63
2023/02/27 02:07:30;;;;;;;3.78;1.48;;;1.70;72.40;;;;;;9176475;19;20475;-64
2023/02/27 02:10:35;;;;;;;5.30;1.52;;;1.70;72.40;;;;;;9175000;19;20070;-64
2023/02/27 02:13:43;;;;;;;6.13;1.65;;;1.60;72.40;;;;;;9174136;19;20588;-63
2023/02/27 02:17:13;;;;;;;7.93;2.10;;;1.60;72.50;;;;;;9175196;19;20014;-64
2023/02/27 02:21:02;;;;;;;3.90;1.70;;;1.60;72.40;;;;;;9170696;19;20014;-64
2023/02/27 02:24:45;;;;;;;5.03;2.08;;;1.60;72.40;;;;;;9173536;19;20025;-64
2023/02/27 02:28:03;;;;;;;5.38;1.77;;;1.50;72.50;;;;;;9174453;19;20021;-64
2023/02/27 02:31:33;;;;;;;5.70;2.17;;;1.50;72.60;;;;;;9173855;19;20051;-64
2023/02/27 02:35:14;;;;;;;5.30;1.58;;;1.50;72.60;;;;;;9173653;19;20360;-64
2023/02/27 02:38:33;;;;;;;5.00;1.73;;;1.50;72.70;;;;;;9175688;19;20010;-64
2023/02/27 02:41:51;;;;;;;6.65;2.05;;;1.40;72.70;;;;;;9172770;19;20025;-64
2023/02/27 02:45:07;;;;;;;6.25;1.70;;;1.40;72.70;;;;;;9174129;19;20463;-63
2023/02/27 02:48:18;;;;;;;6.13;1.83;;;1.40;72.70;;;;;;9173353;19;20022;-64
2023/02/27 02:51:31;;;;;;;5.72;2.42;;;1.40;72.70;;;;;;9174085;19;20014;-63
2023/02/27 02:54:44;;;;;;;11.15;2.83;;;1.40;72.80;;;;;;9179014;19;20030;-64
2023/02/27 02:57:53;;;;;;;7.10;2.65;;;1.30;72.70;;;;;;9182250;19;20015;-64
2023/02/27 03:01:04;;;;;;;8.55;2.70;;;1.40;72.80;;;;;;9181710;19;20022;-64
2023/02/27 03:04:14;;;;;;;8.98;2.60;;;1.30;72.80;;;;;;9181946;19;20023;-63
2023/02/27 03:07:24;;;;;;;9.88;3.05;;;1.40;72.90;;;;;;9181620;19;20017;-64
2023/02/27 03:10:34;;;;;;;7.72;2.92;;;1.40;72.90;;;;;;9182027;19;20078;-63
2023/02/27 03:13:45;;;;;;;12.57;3.47;;;1.30;72.80;;;;;;9181871;19;20467;-63
2023/02/27 03:16:54;;;;;;;13.60;3.03;;;1.30;72.80;;;;;;9182244;19;20026;-63
2023/02/27 03:20:04;;;;;;;27.85;5.20;;;1.30;72.80;;;;;;9175697;19;20015;-64
2023/02/27 03:23:17;;;;;;;15.07;3.78;;;1.30;72.80;;;;;;9181171;19;20503;-63
2023/02/27 03:26:32;;;;;;;10.13;2.72;;;1.30;72.90;;;;;;9179631;19;20011;-63
2023/02/27 03:29:40;;;;;;;5.63;2.38;;;1.30;73.00;;;;;;9182476;19;20022;-64
2023/02/27 03:32:55;;;;;;;8.20;2.70;;;1.30;72.90;;;;;;9180423;19;20017;-64
2023/02/27 03:36:07;;;;;;;14.98;3.33;;;1.30;73.00;;;;;;9180900;19;20503;-64
2023/02/27 03:39:24;;;;;;;12.75;2.85;;;1.20;72.90;;;;;;9180828;19;20011;-63
2023/02/27 03:42:37;;;;;;;16.80;2.38;;;1.20;73.00;;;;;;9180551;19;20010;-63
2023/02/27 03:45:58;;;;;;;5.88;2.28;;;1.20;73.00;;;;;;9180014;19;20010;-64
2023/02/27 03:49:02;;;;;;;5.15;2.40;;;1.20;73.00;;;;;;9180275;19;20022;-64
2023/02/27 03:52:08;;;;;;;6.57;2.13;;;1.20;73.00;;;;;;9180466;19;20010;-64
2023/02/27 03:55:16;;;;;;;4.32;2.00;;;1.20;73.10;;;;;;9179608;19;20486;-64
2023/02/27 03:58:25;;;;;;;5.88;2.20;;;1.20;73.10;;;;;;9180117;19;20017;-64
2023/02/27 04:01:30;;;;;;;5.05;2.05;;;1.20;73.10;;;;;;9179954;19;20018;-63
2023/02/27 04:04:36;;;;;;;7.78;2.30;;;1.10;73.10;;;;;;9180272;19;20018;-63
2023/02/27 04:08:09;;;;;;;;;;;1.10;73.10;;;;;;9179530;19;20084;-64
2023/02/27 04:11:35;;;;;;;7.20;2.28;;;1.10;73.10;;;;;;9181135;19;19919;-64
2023/02/27 04:14:58;;;;;;;7.57;2.30;;;1.00;73.00;;;;;;9179294;19;20073;-63
2023/02/27 04:18:10;;;;;;;;;;;1.00;73.00;;;;;;9181102;19;20019;-63
2023/02/27 04:21:22;;;;;;;8.38;2.40;;;0.90;73.00;;;;;;9174664;19;19923;-63
2023/02/27 04:24:37;;;;;;;6.03;2.78;;;0.90;73.10;;;;;;9176395;19;20471;-64
2023/02/27 04:27:49;;;;;;;14.20;3.67;;;0.90;73.10;;;;;;9180723;19;20015;-64
2023/02/27 04:31:11;;;;;;;9.50;3.47;;;0.80;73.10;;;;;;9180120;19;20014;-63
2023/02/27 04:34:24;;;;;;;10.02;4.18;;;0.80;73.20;;;;;;9179477;19;20018;-64
2023/02/27 04:37:33;;;;;;;10.70;3.63;;;0.80;73.20;;;;;;9180536;19;20054;-64
2023/02/27 04:40:44;;;;;;;12.65;4.47;;;0.70;73.20;;;;;;9179766;19;20006;-64
2023/02/27 04:43:51;;;;;;;9.43;3.47;;;0.70;73.20;;;;;;9178555;19;20475;-63
2023/02/27 04:47:00;;;;;;;11.35;3.92;;;0.70;73.30;;;;;;9178451;19;20025;-63
2023/02/27 04:50:14;;;;;;;13.75;3.92;;;0.70;73.30;;;;;;9180420;19;20011;-63
2023/02/27 04:53:23;;;;;;;6.57;3.92;;;0.60;73.30;;;;;;9180036;19;20018;-63
2023/02/27 04:56:32;;;;;;;9.70;4.32;;;0.60;73.30;;;;;;9179715;19;20025;-63
2023/02/27 04:59:40;;;;;;;11.70;3.78;;;0.60;73.30;;;;;;9179648;19;20049;-64
2023/02/27 05:02:53;;;;;;;8.50;3.00;;;0.60;73.40;;;;;;9178662;19;20352;-63
2023/02/27 05:06:01;;;;;;;9.93;3.13;;;0.50;73.30;;;;;;9178628;19;20021;-64
2023/02/27 05:09:19;;;;;;;13.02;2.88;;;0.50;73.30;;;;;;9175132;19;20006;-63
2023/02/27 05:12:27;;;;;;;11.80;2.70;;;0.50;73.40;;;;;;9177830;19;20014;-63
2023/02/27 05:15:37;;;;;;;5.82;2.63;;;0.50;73.40;;;;;;9173761;19;20490;-63
2023/02/27 05:18:44;;;;;;;14.07;2.38;;;0.50;73.40;;;;;;9173653;19;20074;-63
2023/02/27 05:21:58;;;;;;;5.80;2.53;;;0.40;73.40;;;;;;9179398;19;20018;-63
2023/02/27 05:25:07;;;;;;;4.30;2.60;;;0.40;73.40;;;;;;9179293;19;20022;-63
2023/02/27 05:28:19;;;;;;;5.47;2.78;;;0.40;73.40;;;;;;9178221;19;20018;-63
2023/02/27 05:31:29;;;;;;;8.93;2.80;;;0.40;73.40;;;;;;9177796;19;20022;-64
2023/02/27 05:34:43;;;;;;;5.03;2.42;;;0.30;73.50;;;;;;9176901;19;20015;-64
2023/02/27 05:37:51;;;;;;;5.45;2.20;;;0.30;73.50;;;;;;9178991;19;20022;-64
2023/02/27 05:41:01;;;;;;;6.00;3.08;;;0.20;73.40;;;;;;9179077;19;20352;-64
2023/02/27 05:44:11;;;;;;;7.32;2.47;;;0.20;73.40;;;;;;9176415;19;20089;-64
2023/02/27 05:47:21;;;;;;;6.47;2.45;;;0.10;73.50;;;;;;9178196;19;20018;-63
2023/02/27 05:50:32;;;;;;;5.13;2.78;;;0.20;73.50;;;;;;9176695;19;20006;-64
2023/02/27 05:53:43;;;;;;;10.70;3.03;;;0.10;73.50;;;;;;9178500;19;20022;-64
2023/02/27 05:56:51;;;;;;;3.97;2.33;;;0.10;73.50;;;;;;9178302;19;20010;-64
2023/02/27 06:00:03;;;;;;;7.03;2.78;;;0.10;73.50;;;;;;9176590;19;20038;-63
2023/02/27 06:03:15;;;;;;;4.75;2.47;;;0.10;73.60;;;;;;9175864;19;20368;-64
2023/02/27 06:06:24;;;;;;;5.93;2.17;;;0.00;73.50;;;;;;9177895;19;20016;-64
2023/02/27 06:09:29;;;;;;;8.68;2.35;;;0.00;73.50;;;;;;9173178;19;20372;-64
2023/02/27 06:12:36;;;;;;;6.63;2.92;;;-0.10;73.50;;;;;;9177487;19;20015;-64
2023/02/27 06:15:40;;;;;;;8.93;2.30;;;-0.10;73.50;;;;;;9173366;19;20048;-64
2023/02/27 06:18:46;;;;;;;6.70;2.33;;;-0.10;73.60;;;;;;9171880;19;20003;-64
2023/02/27 06:21:51;;;;;;;5.03;2.60;;;-0.10;73.60;;;;;;9175392;19;20014;-64
2023/02/27 06:24:57;;;;;;;4.80;2.22;;;-0.20;73.60;;;;;;9176971;19;20026;-63
2023/02/27 06:28:02;;;;;;;8.43;2.83;;;-0.20;73.60;;;;;;9180409;19;20018;-63
2023/02/27 06:31:08;;;;;;;6.97;2.65;;;-0.20;73.60;;;;;;9183071;19;20017;-63
2023/02/27 06:34:12;;;;;;;6.22;3.00;;;-0.30;73.60;;;;;;9182322;19;20017;-63
2023/02/27 06:37:20;;;;;;;5.57;2.53;;;-0.30;73.60;;;;;;9182997;19;20018;-63
2023/02/27 06:40:25;;;;;;;4.22;2.38;;;-0.30;73.60;;;;;;9183122;19;20015;-63
2023/02/27 06:43:33;;;;;;;4.82;2.70;;;-0.30;73.60;;;;;;9184311;19;20475;-63
2023/02/27 06:46:37;;;;;;;8.35;2.65;;;-0.40;73.60;;;;;;9183055;19;20568;-63
2023/02/27 06:49:43;;;;;;;5.70;2.50;;;-0.40;73.70;;;;;;9183529;19;20115;-63
2023/02/27 06:52:49;;;;;;;5.78;2.72;;;-0.40;73.70;;;;;;9183292;19;20022;-63
2023/02/27 06:55:55;;;;;;;8.48;2.65;;;-0.40;73.70;;;;;;9181525;19;20015;-64
2023/02/27 06:58:59;;;;;;;7.88;2.60;;;-0.50;73.70;;;;;;9184355;19;20018;-63
2023/02/27 07:02:05;;;;;;;17.27;5.45;;;-0.50;73.70;;;;;;9181314;19;20015;-63
2023/02/27 07:05:10;;;;;;;15.48;5.78;;;-0.50;73.70;;;;;;9182203;19;20030;-63
2023/02/27 07:08:18;;;;;;;17.02;5.68;;;-0.50;73.70;;;;;;9180542;19;20018;-63
2023/02/27 07:11:22;;;;;;;12.48;5.15;;;-0.50;73.70;;;;;;9182236;19;20542;-62
2023/02/27 07:14:28;;;;;;;10.48;4.07;;;-0.50;73.80;;;;;;9182214;19;20029;-62
2023/02/27 07:17:32;;;;;;;14.68;4.20;;;-0.60;73.80;;;;;;9182855;19;20018;-62
2023/02/27 07:20:38;;;;;;;18.52;4.72;;;-0.50;73.90;;;;;;9175233;19;20017;-62
2023/02/27 07:23:44;;;;;;;11.13;4.03;;;-0.50;73.90;;;;;;9182948;19;20023;-62
2023/02/27 07:26:50;;;;;;;9.88;3.83;;;-0.50;74.00;;;;;;9180669;19;20014;-62
2023/02/27 07:29:54;;;;;;;8.43;3.92;;;-0.50;74.00;;;;;;9180548;19;20386;-62
2023/02/27 07:33:00;;;;;;;11.20;3.33;;;-0.50;74.10;;;;;;9181085;19;20478;-63
2023/02/27 07:36:04;;;;;;;8.48;3.08;;;-0.40;74.20;;;;;;9178786;19;20618;-62
2023/02/27 07:39:13;;;;;;;11.02;3.20;;;-0.30;74.30;;;;;;9179115;19;20349;-62
2023/02/27 07:42:17;;;;;;;8.98;2.92;;;-0.30;74.30;;;;;;9180539;19;20042;-63
2023/02/27 07:45:23;;;;;;;5.40;3.28;;;-0.20;74.40;;;;;;9182532;19;20021;-62
2023/02/27 07:48:27;;;;;;;7.85;4.22;;;-0.10;74.50;;;;;;9179894;19;20022;-62
2023/02/27 07:51:33;;;;;;;14.85;4.72;;;0.00;74.50;;;;;;9182275;19;20010;-63
2023/02/27 07:54:39;;;;;;;13.07;4.18;;;0.10;74.70;;;;;;9179451;19;20018;-62
2023/02/27 07:57:46;;;;;;;11.88;4.13;;;0.30;74.70;;;;;;9171900;19;20526;-62
2023/02/27 08:00:49;;;;;;;10.13;4.53;;;0.40;74.80;;;;;;9169481;19;20078;-63
2023/02/27 08:03:57;;;;;;;15.75;4.50;;;0.50;74.90;;;;;;9174876;19;20040;-63
2023/02/27 08:07:02;;;;;;;7.63;4.15;;;0.70;75.00;;;;;;9174957;19;20011;-63
2023/02/27 08:10:11;;;;;;;8.77;3.53;;;0.90;75.00;;;;;;9170701;19;20443;-63
2023/02/27 08:13:15;;;;;;;9.75;3.45;;;1.10;75.10;;;;;;9171755;19;20011;-63
2023/02/27 08:16:26;;;;;;;12.70;3.88;;;1.30;75.20;;;;;;9169321;19;20003;-63
2023/02/27 08:19:31;;;;;;;22.15;5.15;;;1.50;75.10;;;;;;9163107;19;20109;-63
2023/02/27 08:22:37;;;;;;;19.40;4.85;;;1.80;75.30;;;;;;9171585;19;20014;-63
2023/02/27 08:25:42;;;;;;;18.88;5.82;;;2.00;75.30;;;;;;9170537;19;20026;-63
2023/02/27 08:28:49;;;;;;;15.15;4.80;;;2.30;75.40;;;;;;9168822;19;20010;-64
2023/02/27 08:31:52;;;;;;;12.20;4.28;;;2.50;75.30;;;;;;9164890;19;20015;-64
2023/02/27 08:34:59;;;;;;;14.68;4.07;;;2.70;75.40;;;;;;9170317;19;20762;-64
2023/02/27 08:38:04;;;;;;;15.98;3.95;;;2.90;75.40;;;;;;9168362;19;20030;-64
2023/02/27 08:41:12;;;;;;;7.45;3.03;;;3.10;75.20;;;;;;9176737;19;20021;-63
2023/02/27 08:44:16;;;;;;;11.70;3.50;;;3.30;75.10;;;;;;9178818;19;20040;-64
2023/02/27 08:47:22;;;;;;;6.22;3.47;;;3.50;75.00;;;;;;9168485;19;20036;-64
2023/02/27 08:50:26;;;;;;;4.55;2.40;;;3.60;74.90;;;;;;9161222;19;20021;-64
2023/02/27 08:53:32;;;;;;;3.28;2.17;;;3.70;74.80;;;;;;9161074;19;20016;-65
2023/02/27 08:56:38;;;;;;;18.10;2.60;;;3.80;74.70;;;;;;9153507;19;20022;-64
2023/02/27 08:59:44;;;;;;;6.50;2.00;;;3.90;74.70;;;;;;9152062;19;20010;-64
2023/02/27 09:02:48;;;;;;;7.35;1.95;;;3.90;74.60;;;;;;9155795;19;20479;-63
2023/02/27 09:05:54;;;;;;;7.55;1.98;;;4.00;74.70;;;;;;9153311;19;20022;-63
2023/02/27 09:08:58;;;;;;;;;;;4.00;74.60;;;;;;9156012;19;20022;-63
2023/02/27 09:12:06;;;;;;;10.10;2.42;;;4.10;74.70;;;;;;9158888;19;19914;-64
2023/02/27 09:15:12;;;;;;;10.95;2.50;;;4.10;74.50;;;;;;9165371;19;20035;-63
2023/02/27 09:18:18;;;;;;;6.63;2.30;;;4.10;74.60;;;;;;9158452;19;20455;-64
2023/02/27 09:21:22;;;;;;;;;;;4.20;74.60;;;;;;9166784;19;20014;-63
2023/02/27 09:24:28;;;;;;;6.95;2.10;;;4.20;74.60;;;;;;9164800;19;19926;-63
2023/02/27 09:27:34;;;;;;;7.63;2.13;;;4.20;74.60;;;;;;9162749;19;20014;-63
2023/02/27 09:30:40;;;;;;;4.95;1.50;;;4.30;74.70;;;;;;9163925;19;20333;-64
2023/02/27 09:33:44;;;;;;;5.95;2.20;;;4.30;74.70;;;;;;9163450;19;20022;-64
2023/02/27 09:36:50;;;;;;;15.07;2.67;;;4.30;74.70;;;;;;9159379;19;20017;-64
2023/02/27 09:39:54;;;;;;;6.55;1.98;;;4.40;74.70;;;;;;9161475;19;20029;-63
2023/02/27 09:43:09;;;;;;;7.63;2.00;;;4.40;74.80;;;;;;9162479;19;20037;-64
2023/02/27 09:46:20;;;;;;;10.52;2.38;;;4.50;74.80;;;;;;9164081;19;20018;-63
2023/02/27 09:49:33;;;;;;;13.50;2.40;;;4.50;74.80;;;;;;9163693;19;20373;-64
2023/02/27 09:52:38;;;;;;;7.10;2.08;;;4.60;74.90;;;;;;9163082;19;20023;-64
2023/02/27 09:55:46;;;;;;;10.60;2.63;;;4.70;75.00;;;;;;9160908;19;20026;-64
2023/02/27 09:58:57;;;;;;;4.70;1.63;;;4.80;75.00;;;;;;9161521;19;20086;-64
2023/02/27 10:02:13;;;;;;;3.67;1.55;;;5.00;75.10;;;;;;9156401;19;20782;-64
2023/02/27 10:05:27;;;;;;;6.03;1.30;;;5.10;75.10;;;;;;9168024;19;20014;-64
2023/02/27 10:08:40;;;;;;;5.30;1.70;;;5.20;75.00;;;;;;9168771;19;20025;-64
2023/02/27 10:11:57;;;;;;;3.55;1.63;;;5.30;75.00;;;;;;9174580;19;20359;-64
2023/02/27 10:15:15;;;;;;;3.65;1.30;;;5.50;75.10;;;;;;9171640;19;20662;-64
2023/02/27 10:18:22;;;;;;;4.13;1.40;;;5.70;75.20;;;;;;9154322;19;20660;-65
2023/02/27 10:21:40;;;;;;;2.83;1.30;;;5.90;75.20;;;;;;9168585;19;20010;-64
2023/02/27 10:24:51;;;;;;;8.60;1.27;;;6.20;75.20;;;;;;9166381;19;20625;-64
2023/02/27 10:28:02;;;;;;;9.70;1.63;;;6.40;75.10;;;;;;9165080;19;20355;-64
2023/02/27 10:31:16;;;;;;;4.93;1.40;;;6.70;75.00;;;;;;9167626;19;20701;-64
2023/02/27 10:34:27;;;;;;;3.33;1.05;;;7.00;74.90;;;;;;9165624;19;20482;-64
2023/02/27 10:37:31;;;;;;;3.42;1.20;;;7.30;74.80;;;;;;9166251;19;20014;-64
2023/02/27 10:40:39;;;;;;;4.40;1.27;;;7.50;74.50;;;;;;9172968;19;20010;-64
2023/02/27 10:43:44;;;;;;;10.40;2.05;;;7.80;74.30;;;;;;9171652;19;20010;-65
2023/02/27 10:46:52;;;;;;;8.30;1.15;;;8.00;74.70;;;;;;9171104;19;20372;-65
2023/02/27 10:49:59;;;;;;;3.22;1.00;;;8.20;73.90;;;;;;9170352;19;20464;-65
2023/02/27 10:53:09;;;;;;;7.85;1.20;;;8.40;73.80;;;;;;9172164;19;20022;-65
2023/02/27 10:56:19;;;;;;;1.92;1.10;;;8.60;73.50;;;;;;9164167;19;20010;-64
2023/02/27 10:59:28;;;;;;;3.80;1.10;;;8.80;73.20;;;;;;9171138;19;20018;-65
2023/02/27 11:02:38;;;;;;;2.42;0.65;;;8.90;72.90;;;;;;9168160;19;20011;-65
2023/02/27 11:05:52;;;;;;;8.07;1.00;;;9.00;72.50;;;;;;9172437;19;20521;-64
2023/02/27 11:09:13;;;;;;;2.28;0.70;;;9.00;72.40;;;;;;9167310;19;20029;-65
2023/02/27 11:12:24;;;;;;;1.05;0.63;;;9.10;71.90;;;;;;9158267;19;20337;-65
2023/02/27 11:15:31;;;;;;;8.77;1.02;;;9.10;72.00;;;;;;9164664;19;20018;-65
2023/02/27 11:18:40;;;;;;;5.88;1.10;;;9.20;72.00;;;;;;9167989;19;20045;-65
2023/02/27 11:22:01;;;;;;;4.03;0.63;;;9.30;71.80;;;;;;9170166;19;21486;-64
2023/02/27 11:25:21;;;;;;;4.57;1.40;;;9.30;71.30;;;;;;9167514;19;20025;-64
2023/02/27 11:28:29;;;;;;;2.10;1.13;;;9.30;71.10;;;;;;9155282;19;20014;-64
2023/02/27 11:31:37;;;;;;;3.65;0.77;;;9.30;71.20;;;;;;9161235;19;20018;-64
2023/02/27 11:34:50;;;;;;;1.83;0.77;;;9.20;71.10;;;;;;9164053;19;20025;-64
2023/02/27 11:37:58;;;;;;;0.82;0.60;;;9.10;70.80;;;;;;9169169;19;20029;-64
2023/02/27 11:41:04;;;;;;;4.50;1.00;;;9.10;70.90;;;;;;9168930;19;20018;-64
2023/02/27 11:44:18;;;;;;;2.55;0.80;;;8.90;70.70;;;;;;9168644;19;20007;-64
2023/02/27 11:47:42;;;;;;;6.20;0.93;;;8.80;70.50;;;;;;9161681;19;20112;-65
2023/02/27 11:51:15;;;;;;;3.20;1.08;;;8.60;70.60;;;;;;9167711;19;21400;-64
2023/02/27 11:54:35;;;;;;;4.32;0.80;;;8.60;70.30;;;;;;9158611;19;20049;-64
2023/02/27 11:57:45;;;;;;;6.53;1.20;;;8.50;70.40;;;;;;9163967;19;20021;-64
2023/02/27 12:00:55;;;;;;;5.60;1.35;;;8.40;70.60;;;;;;9162291;19;20025;-65
2023/02/27 12:04:05;;;;;;;1.42;0.90;;;8.30;70.60;;;;;;9169301;19;20017;-64
2023/02/27 12:07:21;;;;;;;1.30;1.10;;;8.20;70.50;;;;;;9165484;19;20569;-64
2023/02/27 12:10:31;;;;;;;11.02;1.35;;;8.20;70.50;;;;;;9160987;19;20010;-64
2023/02/27 12:13:40;;;;;;;3.53;1.17;;;8.10;70.60;;;;;;9165768;19;20477;-64
2023/02/27 12:16:51;;;;;;;6.70;1.30;;;8.00;70.50;;;;;;9160613;19;20017;-64
2023/02/27 12:20:14;;;;;;;6.80;1.60;;;8.10;70.60;;;;;;9156528;19;20022;-64
2023/02/27 12:23:29;;;;;;;4.70;1.40;;;8.00;70.50;;;;;;9164084;19;20026;-64
2023/02/27 12:26:38;;;;;;;6.38;1.83;;;8.00;70.50;;;;;;9161584;19;20021;-64
2023/02/27 12:29:55;;;;;;;4.65;1.42;;;8.00;70.50;;;;;;9162620;19;20017;-64
2023/02/27 12:33:05;;;;;;;3.33;1.60;;;7.90;70.50;;;;;;9163763;19;20022;-65
2023/02/27 12:36:13;;;;;;;8.10;1.70;;;7.90;70.40;;;;;;9157227;19;20010;-65
2023/02/27 12:39:22;;;;;;;2.80;1.05;;;7.90;70.40;;;;;;9161517;19;20547;-65
2023/02/27 12:42:51;;;;;;;4.15;1.45;;;7.80;70.30;;;;;;9164078;19;20013;-65
2023/02/27 12:46:02;;;;;;;3.17;1.20;;;7.70;70.30;;;;;;9158126;19;20011;-65
2023/02/27 12:49:20;;;;;;;4.53;1.30;;;7.70;70.30;;;;;;9159059;19;20007;-65
2023/02/27 12:52:36;;;;;;;4.45;1.20;;;7.70;70.10;;;;;;9151657;19;20047;-65
2023/02/27 12:55:48;;;;;;;3.97;1.20;;;7.70;70.20;;;;;;9167013;19;20508;-65
2023/02/27 12:59:01;;;;;;;3.80;1.17;;;7.70;70.20;;;;;;9169861;19;20015;-65
2023/02/27 13:02:24;;;;;;;2.00;1.45;;;7.70;70.10;;;;;;9170578;19;20010;-65
2023/02/27 13:05:51;;;;;;;3.63;1.40;;;7.70;69.80;;;;;;9170299;19;20364;-64
2023/02/27 13:09:09;;;;;;;2.38;1.27;;;7.70;69.90;;;;;;9165209;19;20376;-65
2023/02/27 13:12:24;;;;;;;2.78;1.40;;;7.70;69.80;;;;;;9166063;19;20010;-65
2023/02/27 13:15:39;;;;;;;10.35;2.50;;;7.70;69.70;;;;;;9167099;19;20017;-65
2023/02/27 13:18:48;;;;;;;3.15;1.33;;;7.70;69.70;;;;;;9162949;19;20099;-65
2023/02/27 13:21:56;;;;;;;3.50;1.00;;;7.70;69.70;;;;;;9170059;19;20026;-65
2023/02/27 13:25:07;;;;;;;7.63;1.40;;;7.70;69.60;;;;;;9166028;19;20015;-65
2023/02/27 13:28:20;;;;;;;1.45;1.17;;;7.70;69.50;;;;;;9167378;19;20014;-65
2023/02/27 13:31:33;;;;;;;3.47;1.10;;;7.60;69.40;;;;;;9167289;19;20022;-65
2023/02/27 13:34:44;;;;;;;6.28;1.17;;;7.60;69.30;;;;;;9170556;19;20024;-65
2023/02/27 13:37:53;;;;;;;2.33;1.10;;;7.60;69.30;;;;;;9174064;19;20014;-65
2023/02/27 13:41:34;;;;;;;3.58;1.23;;;7.60;69.30;;;;;;9172955;19;20010;-65
2023/02/27 13:44:43;;;;;;;3.63;1.00;;;7.50;69.10;;;;;;9171786;19;20028;-65
2023/02/27 13:47:50;;;;;;;4.75;1.30;;;7.50;69.20;;;;;;9170720;19;20014;-65
2023/02/27 13:50:54;;;;;;;3.30;1.20;;;7.50;69.10;;;;;;9172892;19;20375;-65
2023/02/27 13:54:19;;;;;;;3.65;1.42;;;7.50;69.10;;;;;;9170232;19;20467;-65
2023/02/27 13:57:26;;;;;;;6.25;1.95;;;7.50;68.80;;;;;;9172675;19;20011;-65
2023/02/27 14:00:36;;;;;;;2.90;1.35;;;7.40;69.00;;;;;;9176314;19;20106;-65
2023/02/27 14:03:41;;;;;;;2.35;1.15;;;7.40;69.00;;;;;;9176768;19;20027;-65
2023/02/27 14:06:49;;;;;;;4.10;1.55;;;7.40;69.00;;;;;;9176142;19;20014;-65
2023/02/27 14:10:01;;;;;;;5.05;1.30;;;7.40;69.00;;;;;;9172240;19;20374;-65
2023/02/27 14:13:07;;;;;;;;;;;7.30;68.80;;;;;;9177043;19;20033;-65
2023/02/27 14:16:34;;;;;;;7.40;1.75;;;7.30;68.90;;;;;;9174023;19;19942;-65
2023/02/27 14:19:58;;;;;;;3.38;1.38;;;7.30;69.00;;;;;;9169007;19;20025;-65
2023/02/27 14:23:21;;;;;;;4.57;1.60;;;7.30;68.90;;;;;;9174201;19;20471;-65
2023/02/27 14:26:27;;;;;;;5.60;1.63;;;7.30;68.80;;;;;;9175402;19;20015;-65
2023/02/27 14:29:34;;;;;;;6.68;1.95;;;7.30;69.00;;;;;;9176929;19;20019;-65
2023/02/27 14:32:40;;;;;;;5.68;1.50;;;7.30;68.80;;;;;;9176620;19;20018;-65
2023/02/27 14:35:53;;;;;;;6.18;1.35;;;7.30;68.80;;;;;;9173908;19;20015;-65
2023/02/27 14:39:02;;;;;;;2.80;1.40;;;7.30;68.60;;;;;;9175794;19;20025;-64
2023/02/27 14:42:34;;;;;;;3.42;1.42;;;7.30;68.70;;;;;;9171361;19;20023;-64
2023/02/27 14:45:40;;;;;;;3.47;1.30;;;7.30;68.50;;;;;;9175425;19;20014;-65
2023/02/27 14:48:44;;;;;;;3.75;1.60;;;7.30;68.70;;;;;;9177698;19;20011;-65
2023/02/27 14:51:52;;;;;;;1.60;1.30;;;7.30;68.60;;;;;;9182880;19;20026;-64
2023/02/27 14:55:13;;;;;;;2.33;1.20;;;7.30;68.60;;;;;;9182905;19;20020;-64
2023/02/27 14:58:21;;;;;;;4.60;1.77;;;7.30;68.40;;;;;;9182172;19;20015;-65
2023/02/27 15:01:29;;;;;;;3.53;1.25;;;7.30;68.60;;;;;;9182609;19;20018;-64
2023/02/27 15:04:36;;;;;;;4.20;1.30;;;7.30;68.60;;;;;;9182305;19;20045;-64
2023/02/27 15:07:44;;;;;;;2.15;1.15;;;7.30;68.60;;;;;;9180770;19;20022;-64
2023/02/27 15:10:52;;;;;;;4.88;1.55;;;7.40;68.50;;;;;;9180913;19;20033;-64
2023/02/27 15:14:00;;;;;;;7.43;1.55;;;7.40;68.50;;;;;;9179148;19;20018;-64
2023/02/27 15:17:16;;;;;;;5.32;1.15;;;7.40;68.40;;;;;;9171910;19;20060;-65
2023/02/27 15:20:28;;;;;;;7.47;1.55;;;7.40;68.20;;;;;;9168570;19;20022;-65
2023/02/27 15:23:36;;;;;;;;;;;7.40;68.20;;;;;;9175976;19;20019;-66
2023/02/27 15:26:42;;;;;;;5.20;1.40;;;7.40;68.30;;;;;;9173857;19;19923;-65
2023/02/27 15:29:51;;;;;;;4.38;1.38;;;7.40;68.40;;;;;;9171220;19;20391;-65
2023/02/27 15:32:56;;;;;;;5.30;1.48;;;7.40;68.30;;;;;;9168929;19;20019;-65
2023/02/27 15:36:02;;;;;;;2.13;1.48;;;7.40;68.30;;;;;;9163832;19;20022;-65
2023/02/27 15:39:24;;;;;;;4.40;1.27;;;7.40;68.10;;;;;;9170298;19;20019;-65
2023/02/27 15:42:35;;;;;;;2.27;1.30;;;7.40;67.90;;;;;;9174205;19;20025;-65
2023/02/27 15:45:40;;;;;;;5.43;1.23;;;7.40;68.10;;;;;;9172322;19;20085;-64
2023/02/27 15:48:46;;;;;;;1.23;1.00;;;7.30;68.00;;;;;;9173706;19;20590;-65
2023/02/27 15:51:58;;;;;;;4.10;1.58;;;7.30;68.00;;;;;;9172805;19;20047;-65
2023/02/27 15:55:13;;;;;;;2.33;1.42;;;7.30;67.90;;;;;;9175026;19;20494;-65
2023/02/27 15:58:25;;;;;;;1.55;1.20;;;7.30;68.00;;;;;;9174166;19;20368;-65
2023/02/27 16:01:33;;;;;;;4.28;1.20;;;7.30;67.90;;;;;;9173468;19;20022;-65
2023/02/27 16:04:37;;;;;;;5.63;1.90;;;7.30;68.30;;;;;;9174155;19;20015;-65
2023/02/27 16:07:44;;;;;;;1.92;1.50;;;7.30;68.00;;;;;;9168062;19;20023;-65
2023/02/27 16:10:52;;;;;;;4.10;1.10;;;7.30;67.90;;;;;;9161496;19;20105;-64
2023/02/27 16:13:58;;;;;;;1.77;1.00;;;7.20;67.80;;;;;;9166721;19;20022;-65
2023/02/27 16:17:03;;;;;;;7.13;1.30;;;7.20;67.80;;;;;;9160308;19;20021;-65
2023/02/27 16:20:32;;;;;;;4.03;1.13;;;7.20;67.80;;;;;;9161226;19;20021;-65
2023/02/27 16:23:36;;;;;;;1.80;1.10;;;7.20;67.50;;;;;;9163332;19;20374;-64
2023/02/27 16:26:50;;;;;;;1.67;1.23;;;7.20;67.80;;;;;;9166619;19;20011;-64
2023/02/27 16:30:00;;;;;;;4.45;1.75;;;7.10;68.30;;;;;;9169995;19;20014;-64
2023/02/27 16:33:06;;;;;;;11.20;1.40;;;7.10;67.70;;;;;;9164298;19;20014;-64
2023/02/27 16:36:19;;;;;;;5.18;1.77;;;7.10;67.70;;;;;;9163346;19;20475;-65
2023/02/27 16:39:26;;;;;;;4.05;1.50;;;7.10;67.70;;;;;;9163325;19;20869;-65